Aviation Digital Data Service (ADDS)

Output produced by METARs form (0652 UTC 18 December 2017)
found at http://aviationweather.gov/adds/metars/
 
KBTV 180542Z 1806/1906 14004KT P6SM BKN140 
     FM181200 15004KT 5SM -SN BR OVC035 
     TEMPO 1813/1817 1 1/2SM -SN BR OVC025 
     FM181700 17008KT P6SM OVC025 
     FM182100 18006KT P6SM OVC015 
     FM182300 17006KT P6SM VCSH OVC015